»·PEaware :: AAL576 KLAS-KMSO

AAL576 :: KLAS-KMSO

FLIGHT INFORMATION

Flight Status: Arrived
Operator:
American Airlines
More flights by this operator :: More flights under this callsign
Pilot: Anonymous 8274 (8274)
Aircraft: BOEING 737-300
(B733)
More flights by this aircraft type
Origin: KLAS McCarran Intl
United States
Destination: KMSO Missoula Intl
United States
More flights between these airports :: More routes between these airports
Route: STAAV8 MLF J9 DBS J52 LKT V231 MSO
File this flight plan on PilotEdge
Remarks:
Altitude:
(Current/Filed)
30,000ft
Speed:
(Current/Filed)
452kts
Departed: 10-Jan-21 10:50 AM
Arrived: 10-Jan-21 12:48 PM
Distance/Time
Traveled:
652nm/1:58
Distance/Time
To Go:
Arrived

Flight Plot

Page will automatically refresh every two minutes.

Flight plan parsing failed; only flown route is shown


Map Options




Map Legend


Flown Route
Filed Route
Departure Airport
Arrival Airport
Navaid (VOR, NDB)
Fix

Horizontal Profiles

Position Reports

Time Latitude Longitude Heading Altitude Ground
Speed
10-Jan-21 10:02 36.079933 -115.135777 45 2185ft 0kts
10-Jan-21 10:03 36.079933 -115.135777 45 2185ft 0kts
10-Jan-21 10:04 36.079933 -115.135777 45 2185ft 0kts
10-Jan-21 10:05 36.079933 -115.135777 45 2185ft 0kts
10-Jan-21 10:06 36.079933 -115.135777 45 2185ft 0kts
10-Jan-21 10:07 36.079933 -115.135777 45 2185ft 0kts
10-Jan-21 10:08 36.079933 -115.135777 45 2185ft 0kts
10-Jan-21 10:09 36.079933 -115.135777 45 2185ft 0kts
10-Jan-21 10:10 36.079933 -115.135777 45 2185ft 0kts
10-Jan-21 10:11 36.079933 -115.135777 45 2185ft 0kts
10-Jan-21 10:12 36.079933 -115.135777 45 2185ft 0kts
10-Jan-21 10:13 36.079933 -115.135777 45 2185ft 0kts
10-Jan-21 10:14 36.079933 -115.135777 45 2185ft 0kts
10-Jan-21 10:15 36.079933 -115.135777 45 2185ft 0kts
10-Jan-21 10:16 36.079933 -115.135777 45 2185ft 0kts
10-Jan-21 10:17 36.079933 -115.135777 45 2185ft 0kts
10-Jan-21 10:18 36.079933 -115.135777 45 2185ft 0kts
10-Jan-21 10:19 36.079933 -115.135777 45 2185ft 0kts
10-Jan-21 10:20 36.079933 -115.135777 45 2185ft 0kts
10-Jan-21 10:21 36.079933 -115.135777 45 2185ft 0kts
10-Jan-21 10:22 36.079933 -115.135777 45 2185ft 0kts
10-Jan-21 10:23 36.079933 -115.135777 45 2185ft 0kts
10-Jan-21 10:24 36.079933 -115.135777 45 2185ft 0kts
10-Jan-21 10:25 36.079933 -115.135777 45 2185ft 0kts
10-Jan-21 10:26 36.079933 -115.135777 45 2185ft 0kts
10-Jan-21 10:27 36.079933 -115.135777 45 2185ft 0kts
10-Jan-21 10:28 36.079933 -115.135777 45 2185ft 0kts
10-Jan-21 10:29 36.079933 -115.135777 45 2185ft 0kts
10-Jan-21 10:30 36.079933 -115.135777 45 2185ft 0kts
10-Jan-21 10:31 36.079933 -115.135777 45 2185ft 0kts
10-Jan-21 10:32 36.079933 -115.135777 45 2185ft 0kts
10-Jan-21 10:33 36.079933 -115.135777 45 2185ft 0kts
10-Jan-21 10:34 36.079933 -115.135777 45 2185ft 0kts
10-Jan-21 10:35 36.079933 -115.135777 45 2185ft 0kts
10-Jan-21 10:36 36.079933 -115.135777 45 2185ft 0kts
10-Jan-21 10:37 36.079645 -115.136133 44 2185ft 2kts
10-Jan-21 10:38 36.079413 -115.136467 131 2185ft 4kts
10-Jan-21 10:39 36.079111 -115.136097 135 2185ft 0kts
10-Jan-21 10:40 36.079111 -115.136097 135 2185ft 0kts
10-Jan-21 10:41 36.079111 -115.136097 135 2185ft 0kts
10-Jan-21 10:42 36.079111 -115.136097 135 2185ft 0kts
10-Jan-21 10:43 36.078593 -115.135470 135 2185ft 7kts
10-Jan-21 10:45 36.078298 -115.131516 89 2185ft 16kts
10-Jan-21 10:46 36.078312 -115.124886 89 2185ft 20kts
10-Jan-21 10:47 36.077489 -115.121414 143 2185ft 0kts
10-Jan-21 10:48 36.077489 -115.121414 143 2185ft 0kts
10-Jan-21 10:49 36.076898 -115.121217 174 2185ft 6kts
10-Jan-21 10:50 36.076451 -115.130742 269 2185ft 120kts
10-Jan-21 10:51 36.076891 -115.186956 270 3699ft 197kts
10-Jan-21 10:52 36.078483 -115.265004 293 6188ft 237kts
10-Jan-21 10:53 36.137339 -115.295664 11 8937ft 248kts
10-Jan-21 10:54 36.180953 -115.234276 64 11263ft 273kts
10-Jan-21 10:55 36.197009 -115.124089 85 12218ft 362kts
10-Jan-21 10:56 36.198429 -114.994458 85 14845ft 380kts
10-Jan-21 10:57 36.199850 -114.860949 85 17198ft 397kts
10-Jan-21 10:58 36.240979 -114.743247 32 19290ft 385kts
10-Jan-21 10:58 36.312849 -114.675312 33 20963ft 397kts
10-Jan-21 10:59 36.403017 -114.589424 32 22811ft 411kts
10-Jan-21 11:00 36.496271 -114.501014 32 24514ft 424kts
10-Jan-21 11:02 36.612969 -114.402412 26 26354ft 434kts
10-Jan-21 11:03 36.722689 -114.317460 27 27772ft 447kts
10-Jan-21 11:03 36.817588 -114.243684 27 29113ft 450kts
10-Jan-21 11:04 36.934435 -114.152688 26 30445ft 451kts
10-Jan-21 11:05 37.048030 -114.063886 26 30413ft 448kts
10-Jan-21 11:06 37.156771 -113.978721 26 30436ft 443kts
10-Jan-21 11:07 37.271412 -113.888538 27 30400ft 442kts
10-Jan-21 11:08 37.383667 -113.799859 27 30395ft 443kts
10-Jan-21 11:09 37.492283 -113.713752 27 30396ft 443kts
10-Jan-21 11:10 37.602231 -113.626286 27 30397ft 444kts
10-Jan-21 11:11 37.706892 -113.542736 27 30396ft 444kts
10-Jan-21 11:12 37.811268 -113.459131 27 30398ft 443kts
10-Jan-21 11:13 37.914757 -113.375955 27 30405ft 440kts
10-Jan-21 11:14 38.018122 -113.292372 28 30404ft 440kts
10-Jan-21 11:15 38.118219 -113.211385 28 30370ft 439kts
10-Jan-21 11:16 38.220754 -113.128287 28 30407ft 436kts
10-Jan-21 11:17 38.323021 -113.044990 28 30404ft 434kts
10-Jan-21 11:18 38.429323 -112.975564 18 30407ft 428kts
10-Jan-21 11:19 38.538786 -112.916366 18 30400ft 427kts
10-Jan-21 11:20 38.648260 -112.856713 18 30386ft 427kts
10-Jan-21 11:21 38.757389 -112.797043 18 30386ft 426kts
10-Jan-21 11:22 38.866204 -112.737347 18 30386ft 426kts
10-Jan-21 11:23 38.974891 -112.677522 19 30387ft 426kts
10-Jan-21 11:24 39.083904 -112.617316 19 30388ft 425kts
10-Jan-21 11:25 39.190486 -112.558371 19 30387ft 424kts
10-Jan-21 11:26 39.298878 -112.498118 19 30387ft 423kts
10-Jan-21 11:27 39.406806 -112.437911 19 30387ft 422kts
10-Jan-21 11:28 39.514686 -112.377527 19 30388ft 421kts
10-Jan-21 11:29 39.622921 -112.316534 19 30400ft 420kts
10-Jan-21 11:30 39.730310 -112.255959 19 30414ft 419kts
10-Jan-21 11:31 39.837714 -112.195224 19 30414ft 418kts
10-Jan-21 11:32 39.944828 -112.134448 19 30414ft 417kts
10-Jan-21 11:33 40.051510 -112.071828 20 30414ft 419kts
10-Jan-21 11:34 40.156429 -112.010344 20 30402ft 419kts
10-Jan-21 11:35 40.263471 -111.947487 18 30401ft 418kts
10-Jan-21 11:36 40.377462 -111.947373 354 30389ft 409kts
10-Jan-21 11:37 40.491555 -111.955952 355 30389ft 409kts
10-Jan-21 11:38 40.606015 -111.964162 355 30392ft 409kts
10-Jan-21 11:39 40.719366 -111.972311 355 30395ft 409kts
10-Jan-21 11:40 40.833625 -111.980551 355 30404ft 409kts
10-Jan-21 11:41 40.948136 -111.988403 356 30407ft 410kts
10-Jan-21 11:42 41.067193 -111.996360 356 30405ft 412kts
10-Jan-21 11:43 41.181660 -112.004019 356 30391ft 421kts
10-Jan-21 11:44 41.299666 -112.011950 356 30412ft 422kts
10-Jan-21 11:45 41.419161 -112.020018 356 30438ft 422kts
10-Jan-21 11:46 41.539072 -112.028144 356 30444ft 422kts
10-Jan-21 11:47 41.659899 -112.036362 356 30443ft 422kts
10-Jan-21 11:48 41.779899 -112.044553 356 30442ft 421kts
10-Jan-21 11:49 41.898001 -112.052648 356 30443ft 421kts
10-Jan-21 11:50 42.015364 -112.060720 356 30432ft 421kts
10-Jan-21 11:51 42.132829 -112.068819 356 30393ft 420kts
10-Jan-21 11:52 42.251888 -112.077058 356 30425ft 422kts
10-Jan-21 11:53 42.371063 -112.085347 356 30423ft 423kts
10-Jan-21 11:54 42.489592 -112.093622 356 30425ft 424kts
10-Jan-21 11:55 42.608663 -112.101965 356 30422ft 425kts
10-Jan-21 11:56 42.727865 -112.110350 356 30432ft 428kts
10-Jan-21 11:57 42.847563 -112.118803 356 30434ft 429kts
10-Jan-21 11:58 42.968043 -112.127345 356 30430ft 430kts
10-Jan-21 11:59 43.088646 -112.135929 356 30432ft 433kts
10-Jan-21 12:00 43.209206 -112.144522 356 30436ft 433kts
10-Jan-21 12:01 43.329965 -112.153185 356 30433ft 432kts
10-Jan-21 12:02 43.450456 -112.161864 356 30433ft 432kts
10-Jan-21 12:03 43.570638 -112.170553 356 30433ft 432kts
10-Jan-21 12:04 43.691474 -112.179326 356 30432ft 432kts
10-Jan-21 12:05 43.811465 -112.188072 356 30433ft 432kts
10-Jan-21 12:06 43.932349 -112.196918 356 30433ft 432kts
10-Jan-21 12:07 44.052927 -112.205779 356 30433ft 432kts
10-Jan-21 12:08 44.142392 -112.299587 298 30445ft 436kts
10-Jan-21 12:09 44.207798 -112.441019 306 30432ft 433kts
10-Jan-21 12:10 44.278031 -112.579010 306 30433ft 433kts
10-Jan-21 12:11 44.348018 -112.717216 306 30427ft 434kts
10-Jan-21 12:12 44.417794 -112.855539 306 30433ft 434kts
10-Jan-21 12:13 44.487413 -112.994142 306 30432ft 434kts
10-Jan-21 12:14 44.556533 -113.132408 306 30431ft 434kts
10-Jan-21 12:15 44.625988 -113.272015 306 30433ft 434kts
10-Jan-21 12:16 44.695192 -113.411791 306 30432ft 434kts
10-Jan-21 12:17 44.767732 -113.559045 304 30408ft 439kts
10-Jan-21 12:18 44.843881 -113.714602 303 30420ft 443kts
10-Jan-21 12:19 44.915932 -113.862474 303 28602ft 424kts
10-Jan-21 12:21 44.982650 -114.000029 303 26565ft 412kts
10-Jan-21 12:22 45.066584 -114.099477 1 24603ft 404kts
10-Jan-21 12:23 45.175949 -114.084894 0 24450ft 406kts
10-Jan-21 12:24 45.290120 -114.084085 359 24456ft 406kts
10-Jan-21 12:25 45.403417 -114.084035 359 24450ft 407kts
10-Jan-21 12:26 45.516831 -114.084031 359 24417ft 407kts
10-Jan-21 12:27 45.631009 -114.084004 359 24343ft 408kts
10-Jan-21 12:28 45.744741 -114.083935 358 22989ft 402kts
10-Jan-21 12:29 45.853502 -114.083910 358 20985ft 382kts
10-Jan-21 12:30 45.958217 -114.083903 358 18988ft 370kts
10-Jan-21 12:31 46.059831 -114.083829 358 16976ft 355kts
10-Jan-21 12:32 46.153720 -114.083751 358 15130ft 337kts
10-Jan-21 12:33 46.240369 -114.083700 358 14998ft 299kts
10-Jan-21 12:34 46.324216 -114.083674 358 15000ft 300kts
10-Jan-21 12:34 46.394426 -114.083697 358 14753ft 304kts
10-Jan-21 12:36 46.491850 -114.083664 357 12638ft 286kts
10-Jan-21 12:37 46.569468 -114.083646 357 11982ft 275kts
10-Jan-21 12:37 46.634621 -114.083624 357 12003ft 278kts
10-Jan-21 12:38 46.709400 -114.083152 357 12023ft 245kts
10-Jan-21 12:39 46.778045 -114.082017 357 11998ft 246kts
10-Jan-21 12:40 46.837407 -114.118824 313 10921ft 245kts
10-Jan-21 12:41 46.885900 -114.190589 313 9052ft 248kts
10-Jan-21 12:42 46.931426 -114.263015 308 7891ft 217kts
10-Jan-21 12:43 46.979717 -114.283129 40 6415ft 210kts
10-Jan-21 12:44 46.980476 -114.209450 116 5056ft 190kts
10-Jan-21 12:45 46.950810 -114.151102 131 4079ft 157kts
10-Jan-21 12:46 46.923948 -114.105026 130 3206ft 143kts
10-Jan-21 12:47 46.912670 -114.085104 57 3204ft 3kts
10-Jan-21 12:48 46.913334 -114.084218 40 3205ft 0kts
10-Jan-21 12:49 46.913334 -114.084218 40 3205ft 0kts
10-Jan-21 12:50 46.913382 -114.084159 40 3205ft 1kts
10-Jan-21 12:51 46.915211 -114.081926 36 3208ft 12kts
10-Jan-21 12:52 46.917954 -114.085446 319 3208ft 7kts
10-Jan-21 12:53 46.918599 -114.084719 58 3209ft 0kts
10-Jan-21 12:54 46.918599 -114.084719 58 3209ft 0kts
10-Jan-21 12:55 46.918599 -114.084719 58 3209ft 0kts
10-Jan-21 12:56 46.918599 -114.084719 58 3209ft 0kts
10-Jan-21 12:57 46.918599 -114.084719 58 3209ft 0kts
10-Jan-21 12:58 46.918599 -114.084719 58 3209ft 0kts
10-Jan-21 12:59 46.918599 -114.084719 58 3209ft 0kts
10-Jan-21 13:00 46.918599 -114.084719 58 3209ft 0kts
10-Jan-21 13:01 46.918599 -114.084719 58 3209ft 0kts

Navigation Log

Ident Type
Flight plan parsing failed, navigation log unavailable